Time;durP1;ratioP1;P1;durP2;ratioP2;P2;SDS_P1;SDS_P2;PMS_P1;PMS_P2;Temp;Humidity;BMP_temperature;BMP_pressure;BME280_temperature;BME280_humidity;BME280_pressure;Samples;Min_cycle;Max_cycle;Signal;HPM_P1;HPM_P2
2022/07/03 01:22:34;;;;;;;;;;;;;;;;;;5397725;23;19930;-84
2022/07/03 01:25:01;;;;;;;;;;;;;;;;;;4879191;29;19931;-84
2022/07/03 01:27:27;;;;;;;;;;;;;;;;;;4886790;28;19938;-84
2022/07/03 01:29:53;;;;;;;;;;;;;;;;;;4880549;29;19931;-84
2022/07/03 01:32:21;;;;;;;;;;;;;;;;;;4890683;29;19931;-85
2022/07/03 01:34:52;;;;;;;;;;;;;;;;;;4874261;29;20013;-84
2022/07/03 01:37:19;;;;;;;;;;;;;;;;;;4907025;29;19927;-84
2022/07/03 01:39:45;;;;;;;;;;;;;;;;;;4881495;29;19923;-84
2022/07/03 01:42:11;;;;;;;;;;;;;;;;;;4900057;29;19934;-84
2022/07/03 01:44:39;;;;;;;;;;;;;;;;;;4876845;29;19927;-84
2022/07/03 01:47:04;;;;;;;;;;;;;;;;;;4871241;29;19926;-85
2022/07/03 01:49:32;;;;;;;;;;;;;;;;;;4872578;29;19923;-84
2022/07/03 01:51:59;;;;;;;;;;;;;;;;;;4885001;29;19938;-84
2022/07/03 01:54:27;;;;;;;;;;;;;;;;;;4890187;29;21553;-85
2022/07/03 01:56:53;;;;;;;;;;;;;;;;;;4901417;29;19976;-84
2022/07/03 01:59:20;;;;;;;;;;;;;;;;;;4906947;29;19964;-84
2022/07/03 02:01:47;;;;;;;;;;;;;;;;;;4905087;29;19927;-84
2022/07/03 02:04:15;;;;;;;;;;;;;;;;;;4891014;29;19931;-84
2022/07/03 02:06:41;;;;;;;;;;;;;;;;;;4902526;29;19928;-84
2022/07/03 02:09:08;;;;;;;;;;;;;;;;;;4892281;29;19942;-84
2022/07/03 02:11:35;;;;;;;;;;;;;;;;;;4875675;29;19934;-84
2022/07/03 02:14:01;;;;;;;;;;;;;;;;;;4869755;29;19937;-84
2022/07/03 02:16:28;;;;;;;;;;;;;;;;;;4886511;29;19934;-84
2022/07/03 02:18:54;;;;;;;;;;;;;;;;;;4892838;29;20289;-84
2022/07/03 02:21:20;;;;;;;;;;;;;;;;;;4899157;29;19935;-84
2022/07/03 02:23:46;;;;;;;;;;;;;;;;;;4876099;29;19935;-84
2022/07/03 02:26:12;;;;;;;;;;;;;;;;;;4865825;29;19923;-84
2022/07/03 02:28:41;;;;;;;;;;;;;;;;;;4865633;29;20285;-84
2022/07/03 02:31:07;;;;;;;;;;;;;;;;;;4865324;29;19932;-84
2022/07/03 02:33:34;;;;;;;;;;;;;;;;;;4864091;29;20441;-84
2022/07/03 02:36:02;;;;;;;;;;;;;;;;;;4859080;29;19936;-84
2022/07/03 02:38:29;;;;;;;;;;;;;;;;;;4863109;29;20026;-84
2022/07/03 02:40:55;;;;;;;;;;;;;;;;;;4858848;29;19939;-84
2022/07/03 02:43:21;;;;;;;;;;;;;;;;;;4853067;29;19931;-84
2022/07/03 02:45:47;;;;;;;;;;;;;;;;;;4865028;29;19927;-84
2022/07/03 02:48:14;;;;;;;;;;;;;;;;;;4853782;29;19978;-84
2022/07/03 02:50:42;;;;;;;;;;;;;;;;;;4850068;29;20285;-84
2022/07/03 02:53:08;;;;;;;;;;;;;;;;;;4855091;29;22301;-84
2022/07/03 02:55:35;;;;;;;;;;;;;;;;;;4883008;29;19931;-84
2022/07/03 02:58:01;;;;;;;;;;;;;;;;;;4877650;29;20440;-84
2022/07/03 03:00:27;;;;;;;;;;;;;;;;;;4882061;29;19923;-84
2022/07/03 03:02:56;;;;;;;;;;;;;;;;;;4881677;29;19931;-84
2022/07/03 03:05:22;;;;;;;;;;;;;;;;;;4870326;29;19947;-84
2022/07/03 03:07:49;;;;;;;;;;;;;;;;;;4882574;29;20306;-84
2022/07/03 03:10:16;;;;;;;;;;;;;;;;;;4871026;29;19974;-84
2022/07/03 03:12:44;;;;;;;;;;;;;;;;;;4863516;29;21056;-84
2022/07/03 03:15:18;;;;;;;;;;;;;;;;;;4868075;29;19931;-84
2022/07/03 03:17:45;;;;;;;;;;;;;;;;;;4860919;29;19974;-84
2022/07/03 03:20:16;;;;;;;;;;;;;;;;;;4884481;29;20379;-84
2022/07/03 03:22:42;;;;;;;;;;;;;;;;;;4870432;28;19931;-84
2022/07/03 03:25:07;;;;;;;;;;;;;;;;;;4886423;29;19937;-83
2022/07/03 03:27:33;;;;;;;;;;;;;;;;;;4886527;29;19927;-84
2022/07/03 03:29:59;;;;;;;;;;;;;;;;;;4884194;29;19930;-84
2022/07/03 03:32:26;;;;;;;;;;;;;;;;;;4889187;29;19927;-84
2022/07/03 03:34:52;;;;;;;;;;;;;;;;;;4870011;29;19922;-84
2022/07/03 03:37:18;;;;;;;;;;;;;;;;;;4901986;29;19949;-83
2022/07/03 03:39:46;;;;;;;;;;;;;;;;;;4896911;28;20021;-84
2022/07/03 03:42:13;;;;;;;;;;;;;;;;;;4888723;29;19978;-84
2022/07/03 03:44:40;;;;;;;;;;;;;;;;;;4889508;29;20453;-84
2022/07/03 03:47:07;;;;;;;;;;;;;;;;;;4893979;29;19969;-84
2022/07/03 03:49:33;;;;;;;;;;;;;;;;;;4883292;29;19923;-83
2022/07/03 03:51:59;;;;;;;;;;;;;;;;;;4896473;29;22049;-83
2022/07/03 03:54:26;;;;;;;;;;;;;;;;;;4881256;29;20377;-84
2022/07/03 03:56:53;;;;;;;;;;;;;;;;;;4889749;29;19927;-84
2022/07/03 03:59:19;;;;;;;;;;;;;;;;;;4876135;29;19931;-83
2022/07/03 04:01:46;;;;;;;;;;;;;;;;;;4890498;29;19942;-83
2022/07/03 04:04:17;;;;;;;;;;;;;;;;;;4879068;29;19927;-84
2022/07/03 04:06:44;;;;;;;;;;;;;;;;;;4890771;29;19927;-84
2022/07/03 04:09:11;;;;;;;;;;;;;;;;;;4877391;29;19931;-84
2022/07/03 04:11:40;;;;;;;;;;;;;;;;;;4896948;29;20586;-84
2022/07/03 04:14:06;;;;;;;;;;;;;;;;;;4879450;29;19935;-83
2022/07/03 04:16:32;;;;;;;;;;;;;;;;;;4871873;29;19937;-84
2022/07/03 04:19:00;;;;;;;;;;;;;;;;;;4883443;29;19931;-84
2022/07/03 04:21:26;;;;;;;;;;;;;;;;;;4886911;29;19930;-84
2022/07/03 04:23:52;;;;;;;;;;;;;;;;;;4883627;29;19946;-84
2022/07/03 04:26:19;;;;;;;;;;;;;;;;;;4902034;29;19933;-83
2022/07/03 04:28:46;;;;;;;;;;;;;;;;;;4881276;29;19930;-84
2022/07/03 04:31:13;;;;;;;;;;;;;;;;;;4887249;29;20925;-84
2022/07/03 04:33:39;;;;;;;;;;;;;;;;;;4871547;29;19974;-84
2022/07/03 04:36:06;;;;;;;;;;;;;;;;;;4866568;29;20006;-83
2022/07/03 04:38:33;;;;;;;;;;;;;;;;;;4886314;29;19926;-84
2022/07/03 04:40:59;;;;;;;;;;;;;;;;;;4879831;29;22171;-83
2022/07/03 04:43:25;;;;;;;;;;;;;;;;;;4903279;29;20378;-83
2022/07/03 04:45:51;;;;;;;;;;;;;;;;;;4901641;29;19923;-83
2022/07/03 04:48:18;;;;;;;;;;;;;;;;;;4888537;29;19937;-84
2022/07/03 04:50:45;;;;;;;;;;;;;;;;;;4903762;28;19930;-84
2022/07/03 04:53:13;;;;;;;;;;;;;;;;;;4915681;29;19966;-84
2022/07/03 04:55:39;;;;;;;;;;;;;;;;;;4909366;29;19931;-84
2022/07/03 04:58:06;;;;;;;;;;;;;;;;;;4908188;29;19926;-84
2022/07/03 05:00:33;;;;;;;;;;;;;;;;;;4908672;29;19935;-84
2022/07/03 05:03:00;;;;;;;;;;;;;;;;;;4909302;28;21006;-84
2022/07/03 05:05:26;;;;;;;;;;;;;;;;;;4911084;29;20373;-83
2022/07/03 05:07:52;;;;;;;;;;;;;;;;;;4885128;29;20010;-84
2022/07/03 05:10:18;;;;;;;;;;;;;;;;;;4891203;29;20069;-84
2022/07/03 05:12:43;;;;;;;;;;;;;;;;;;4889552;29;19994;-84
2022/07/03 05:15:09;;;;;;;;;;;;;;;;;;4893787;29;19931;-84
2022/07/03 05:17:35;;;;;;;;;;;;;;;;;;4888525;29;20056;-84
2022/07/03 05:22:49;;;;;;;;;;;;;;;;;;4887641;29;19937;-84
2022/07/03 05:25:16;;;;;;;;;;;;;;;;;;4890791;29;19934;-83
2022/07/03 05:27:42;;;;;;;;;;;;;;;;;;4892192;29;20072;-84
2022/07/03 05:30:09;;;;;;;;;;;;;;;;;;4893165;29;19965;-84
2022/07/03 05:32:35;;;;;;;;;;;;;;;;;;4877420;29;19931;-83
2022/07/03 05:35:01;;;;;;;;;;;;;;;;;;4872049;29;19982;-84
2022/07/03 05:37:27;;;;;;;;;;;;;;;;;;4874637;29;19922;-83
2022/07/03 05:39:53;;;;;;;;;;;;;;;;;;4890763;29;19922;-84
2022/07/03 05:42:21;;;;;;;;;;;;;;;;;;4892799;29;20618;-84
2022/07/03 05:44:48;;;;;;;;;;;;;;;;;;4886267;29;19926;-84
2022/07/03 05:47:15;;;;;;;;;;;;;;;;;;4875210;29;19923;-84
2022/07/03 05:49:41;;;;;;;;;;;;;;;;;;4884117;29;19934;-84
2022/07/03 05:52:09;;;;;;;;;;;;;;;;;;4874720;29;19930;-84
2022/07/03 05:54:35;;;;;;;;;;;;;;;;;;4879479;29;19931;-83
2022/07/03 05:57:01;;;;;;;;;;;;;;;;;;4890828;29;19946;-84
2022/07/03 05:59:27;;;;;;;;;;;;;;;;;;4875711;29;19969;-84
2022/07/03 06:01:53;;;;;;;;;;;;;;;;;;4890063;29;20134;-84
2022/07/03 06:04:19;;;;;;;;;;;;;;;;;;4889917;29;19927;-84
2022/07/03 06:06:45;;;;;;;;;;;;;;;;;;4888137;29;19923;-83
2022/07/03 06:09:11;;;;;;;;;;;;;;;;;;4907046;29;20029;-83
2022/07/03 06:11:37;;;;;;;;;;;;;;;;;;4890539;29;19954;-83
2022/07/03 06:14:04;;;;;;;;;;;;;;;;;;4869738;29;19927;-83
2022/07/03 06:16:30;;;;;;;;;;;;;;;;;;4892820;29;19935;-84
2022/07/03 06:18:56;;;;;;;;;;;;;;;;;;4906870;29;19949;-84
2022/07/03 06:21:22;;;;;;;;;;;;;;;;;;4894707;29;20338;-84
2022/07/03 06:23:48;;;;;;;;;;;;;;;;;;4872051;29;19979;-84
2022/07/03 06:26:15;;;;;;;;;;;;;;;;;;4891607;29;19983;-84
2022/07/03 06:28:42;;;;;;;;;;;;;;;;;;4873500;29;19980;-84
2022/07/03 06:31:09;;;;;;;;;;;;;;;;;;4893047;29;19923;-84
2022/07/03 06:33:35;;;;;;;;;;;;;;;;;;4860919;29;19935;-84
2022/07/03 06:36:02;;;;;;;;;;;;;;;;;;4872968;29;19938;-84
2022/07/03 06:38:28;;;;;;;;;;;;;;;;;;4881511;29;20289;-84
2022/07/03 06:40:54;;;;;;;;;;;;;;;;;;4858475;29;19923;-84
2022/07/03 06:43:20;;;;;;;;;;;;;;;;;;4877164;29;19931;-84
2022/07/03 06:45:47;;;;;;;;;;;;;;;;;;4870904;29;20053;-84
2022/07/03 06:48:13;;;;;;;;;;;;;;;;;;4887591;29;19943;-84
2022/07/03 06:50:39;;;;;;;;;;;;;;;;;;4869469;29;19942;-84
2022/07/03 06:53:05;;;;;;;;;;;;;;;;;;4865621;29;19927;-84
2022/07/03 06:55:32;;;;;;;;;;;;;;;;;;4869161;29;20146;-84
2022/07/03 06:57:58;;;;;;;;;;;;;;;;;;4855578;29;19927;-84
2022/07/03 07:00:27;;;;;;;;;;;;;;;;;;4857345;29;19927;-84
2022/07/03 07:02:53;;;;;;;;;;;;;;;;;;4865390;29;19931;-84
2022/07/03 07:05:19;;;;;;;;;;;;;;;;;;4871315;29;19983;-84
2022/07/03 07:07:45;;;;;;;;;;;;;;;;;;4862733;29;19934;-84
2022/07/03 07:10:12;;;;;;;;;;;;;;;;;;4856135;29;19931;-84
2022/07/03 07:12:39;;;;;;;;;;;;;;;;;;4857035;29;20386;-84
2022/07/03 07:15:06;;;;;;;;;;;;;;;;;;4866879;29;20359;-84
2022/07/03 07:17:32;;;;;;;;;;;;;;;;;;4871732;29;20039;-84
2022/07/03 07:19:58;;;;;;;;;;;;;;;;;;4866880;29;20026;-83
2022/07/03 07:22:25;;;;;;;;;;;;;;;;;;4878344;29;20397;-84
2022/07/03 07:24:51;;;;;;;;;;;;;;;;;;4867485;29;20382;-84
2022/07/03 07:27:18;;;;;;;;;;;;;;;;;;4885462;29;20014;-84
2022/07/03 07:29:47;;;;;;;;;;;;;;;;;;4870371;29;20580;-84
2022/07/03 07:32:13;;;;;;;;;;;;;;;;;;4886296;29;19927;-84
2022/07/03 07:34:39;;;;;;;;;;;;;;;;;;4874306;29;19931;-84
2022/07/03 07:37:05;;;;;;;;;;;;;;;;;;4867853;29;20049;-84
2022/07/03 07:39:31;;;;;;;;;;;;;;;;;;4889687;29;19930;-84
2022/07/03 07:41:58;;;;;;;;;;;;;;;;;;4866874;29;19937;-84
2022/07/03 07:44:24;;;;;;;;;;;;;;;;;;4888387;29;20275;-84
2022/07/03 07:46:50;;;;;;;;;;;;;;;;;;4883652;29;19941;-84
2022/07/03 07:49:16;;;;;;;;;;;;;;;;;;4908604;29;19919;-84
2022/07/03 07:51:42;;;;;;;;;;;;;;;;;;4873422;29;19935;-84
2022/07/03 07:54:08;;;;;;;;;;;;;;;;;;4890603;29;19931;-84
2022/07/03 07:56:34;;;;;;;;;;;;;;;;;;4878828;29;20022;-84
2022/07/03 07:59:01;;;;;;;;;;;;;;;;;;4890221;29;19938;-84
2022/07/03 08:07:03;;;;;;;;;;;;;;;;;;4894307;29;19938;-84
2022/07/03 08:09:31;;;;;;;;;;;;;;;;;;4900318;29;20394;-84
2022/07/03 08:11:57;;;;;;;;;;;;;;;;;;4911216;29;19927;-84
2022/07/03 08:14:23;;;;;;;;;;;;;;;;;;4898902;29;20298;-84
2022/07/03 08:16:49;;;;;;;;;;;;;;;;;;4885783;29;20285;-84
2022/07/03 08:19:16;;;;;;;;;;;;;;;;;;4894291;29;19933;-84
2022/07/03 08:21:43;;;;;;;;;;;;;;;;;;4887856;29;20399;-84
2022/07/03 08:24:10;;;;;;;;;;;;;;;;;;4875936;29;20013;-84
2022/07/03 08:26:41;;;;;;;;;;;;;;;;;;4877199;29;20323;-84
2022/07/03 08:29:07;;;;;;;;;;;;;;;;;;4868169;29;19927;-84
2022/07/03 08:31:34;;;;;;;;;;;;;;;;;;4887328;29;19935;-84
2022/07/03 08:34:00;;;;;;;;;;;;;;;;;;4861372;29;20074;-84
2022/07/03 08:36:26;;;;;;;;;;;;;;;;;;4891625;29;20389;-84
2022/07/03 08:38:52;;;;;;;;;;;;;;;;;;4884598;29;20977;-84
2022/07/03 08:41:19;;;;;;;;;;;;;;;;;;4878523;29;19923;-84
2022/07/03 08:43:45;;;;;;;;;;;;;;;;;;4880518;29;19930;-84
2022/07/03 08:46:11;;;;;;;;;;;;;;;;;;4870461;29;19930;-85
2022/07/03 08:48:38;;;;;;;;;;;;;;;;;;4902167;29;19931;-84
2022/07/03 08:51:10;;;;;;;;;;;;;;;;;;4888760;29;20620;-84
2022/07/03 08:53:37;;;;;;;;;;;;;;;;;;4885144;29;19930;-85
2022/07/03 08:56:19;;;;;;;;;;;;;;;;;;4858492;29;19972;-84
2022/07/03 08:58:45;;;;;;;;;;;;;;;;;;4827186;29;20363;-84
2022/07/03 09:01:12;;;;;;;;;;;;;;;;;;4846653;29;19968;-84
2022/07/03 09:03:41;;;;;;;;;;;;;;;;;;4830670;29;19967;-85
2022/07/03 09:06:07;;;;;;;;;;;;;;;;;;4842905;29;19931;-84
2022/07/03 09:08:33;;;;;;;;;;;;;;;;;;4847673;29;19931;-84
2022/07/03 09:10:59;;;;;;;;;;;;;;;;;;4827508;29;20757;-85
2022/07/03 09:13:26;;;;;;;;;;;;;;;;;;4851409;29;19928;-85
2022/07/03 09:15:52;;;;;;;;;;;;;;;;;;4835028;29;19931;-85
2022/07/03 09:18:32;;;;;;;;;;;;;;;;;;4845211;29;21142;-85
2022/07/03 09:20:59;;;;;;;;;;;;;;;;;;4841598;29;20332;-84
2022/07/03 09:23:28;;;;;;;;;;;;;;;;;;4842790;29;19931;-84
2022/07/03 09:25:59;;;;;;;;;;;;;;;;;;4838642;29;19927;-84
2022/07/03 09:28:25;;;;;;;;;;;;;;;;;;4879515;29;20066;-85
2022/07/03 09:30:52;;;;;;;;;;;;;;;;;;4857234;29;19923;-84
2022/07/03 09:33:18;;;;;;;;;;;;;;;;;;4864295;29;22088;-84
2022/07/03 09:35:45;;;;;;;;;;;;;;;;;;4869335;29;19934;-84
2022/07/03 09:38:11;;;;;;;;;;;;;;;;;;4878318;29;19935;-84
2022/07/03 09:40:37;;;;;;;;;;;;;;;;;;4860402;29;20417;-84
2022/07/03 09:43:03;;;;;;;;;;;;;;;;;;4891537;29;19949;-85
2022/07/03 09:45:30;;;;;;;;;;;;;;;;;;4865157;29;19990;-84
2022/07/03 09:47:57;;;;;;;;;;;;;;;;;;4877537;29;19931;-85
2022/07/03 09:50:23;;;;;;;;;;;;;;;;;;4905018;29;20013;-84
2022/07/03 09:52:50;;;;;;;;;;;;;;;;;;4897549;29;20374;-84
2022/07/03 09:55:32;;;;;;;;;;;;;;;;;;4901586;29;20409;-85
2022/07/03 09:58:00;;;;;;;;;;;;;;;;;;4880882;29;19937;-84
2022/07/03 10:00:26;;;;;;;;;;;;;;;;;;4901019;29;20105;-85
2022/07/03 10:02:53;;;;;;;;;;;;;;;;;;4897964;29;20329;-85
2022/07/03 10:05:19;;;;;;;;;;;;;;;;;;4905102;29;20022;-85
2022/07/03 10:07:45;;;;;;;;;;;;;;;;;;4879860;29;20349;-86
2022/07/03 10:10:11;;;;;;;;;;;;;;;;;;4901990;29;19934;-87
2022/07/03 10:12:37;;;;;;;;;;;;;;;;;;4894806;29;19935;-85
2022/07/03 10:15:03;;;;;;;;;;;;;;;;;;4867207;29;19938;-86
2022/07/03 10:17:28;;;;;;;;;;;;;;;;;;4892263;29;20037;-86
2022/07/03 10:19:54;;;;;;;;;;;;;;;;;;4890831;29;19927;-86
2022/07/03 10:22:20;;;;;;;;;;;;;;;;;;4890750;29;19927;-86
2022/07/03 10:24:46;;;;;;;;;;;;;;;;;;4887903;29;19923;-86
2022/07/03 10:27:12;;;;;;;;;;;;;;;;;;4892929;29;19931;-86
2022/07/03 10:29:41;;;;;;;;;;;;;;;;;;4878418;29;19933;-86
2022/07/03 10:32:07;;;;;;;;;;;;;;;;;;4875161;29;19966;-86
2022/07/03 10:34:33;;;;;;;;;;;;;;;;;;4878039;29;19930;-86
2022/07/03 10:36:59;;;;;;;;;;;;;;;;;;4890706;29;20457;-86
2022/07/03 10:39:25;;;;;;;;;;;;;;;;;;4893023;29;19931;-86
2022/07/03 10:44:48;;;;;;;;;;;;;;;;;;4879866;29;19927;-86
2022/07/03 10:47:14;;;;;;;;;;;;;;;;;;4874525;29;20022;-85
2022/07/03 10:49:40;;;;;;;;;;;;;;;;;;4873061;29;19931;-86
2022/07/03 10:52:07;;;;;;;;;;;;;;;;;;4871335;29;20034;-90
2022/07/03 10:54:40;;;;;;;;;;;;;;;;;;4895485;29;19998;-89
2022/07/03 10:57:06;;;;;;;;;;;;;;;;;;4879208;29;19994;-89
2022/07/03 10:59:32;;;;;;;;;;;;;;;;;;4876835;29;19934;-89
2022/07/03 11:01:57;;;;;;;;;;;;;;;;;;4875123;29;19931;-91
2022/07/03 11:04:25;;;;;;;;;;;;;;;;;;4900076;29;19932;-87
2022/07/03 11:06:51;;;;;;;;;;;;;;;;;;4896033;29;19933;-88
2022/07/03 11:09:17;;;;;;;;;;;;;;;;;;4884401;29;20409;-89
2022/07/03 11:11:55;;;;;;;;;;;;;;;;;;4880356;29;19959;-88
2022/07/03 11:14:21;;;;;;;;;;;;;;;;;;4878204;29;19937;-89
2022/07/03 11:16:47;;;;;;;;;;;;;;;;;;4872938;29;19926;-89
2022/07/03 11:19:13;;;;;;;;;;;;;;;;;;4880022;29;20409;-88
2022/07/03 11:21:39;;;;;;;;;;;;;;;;;;4909727;29;19937;-88
2022/07/03 11:24:05;;;;;;;;;;;;;;;;;;4881516;29;19963;-88
2022/07/03 11:26:32;;;;;;;;;;;;;;;;;;4891231;29;19931;-88
2022/07/03 11:28:58;;;;;;;;;;;;;;;;;;4888752;29;19927;-88
2022/07/03 11:31:25;;;;;;;;;;;;;;;;;;4894465;29;19930;-88
2022/07/03 11:33:51;;;;;;;;;;;;;;;;;;4888685;29;20293;-88
2022/07/03 11:39:18;;;;;;;;;;;;;;;;;;4909233;29;19931;-89
2022/07/03 11:41:44;;;;;;;;;;;;;;;;;;4867692;29;19931;-89
2022/07/03 11:44:10;;;;;;;;;;;;;;;;;;4877066;29;19938;-89
2022/07/03 11:46:36;;;;;;;;;;;;;;;;;;4875778;29;19969;-88
2022/07/03 11:49:02;;;;;;;;;;;;;;;;;;4882672;29;20054;-87
2022/07/03 11:51:28;;;;;;;;;;;;;;;;;;4888719;28;19927;-88
2022/07/03 11:53:54;;;;;;;;;;;;;;;;;;4888002;29;20453;-88
2022/07/03 11:56:20;;;;;;;;;;;;;;;;;;4892365;29;20286;-88
2022/07/03 11:58:46;;;;;;;;;;;;;;;;;;4888014;29;20287;-87
2022/07/03 12:01:12;;;;;;;;;;;;;;;;;;4910995;29;20397;-87
2022/07/03 12:03:41;;;;;;;;;;;;;;;;;;4894895;29;19927;-87
2022/07/03 12:06:06;;;;;;;;;;;;;;;;;;4896655;29;19930;-87
2022/07/03 12:08:32;;;;;;;;;;;;;;;;;;4893480;29;19937;-88
2022/07/03 12:10:58;;;;;;;;;;;;;;;;;;4887043;29;19985;-87
2022/07/03 12:13:25;;;;;;;;;;;;;;;;;;4893246;29;20326;-87
2022/07/03 12:15:51;;;;;;;;;;;;;;;;;;4904747;29;19966;-88
2022/07/03 12:18:17;;;;;;;;;;;;;;;;;;4869186;29;20026;-87
2022/07/03 12:20:43;;;;;;;;;;;;;;;;;;4882859;29;20105;-88
2022/07/03 12:23:09;;;;;;;;;;;;;;;;;;4892487;29;19935;-88
2022/07/03 12:25:35;;;;;;;;;;;;;;;;;;4891246;29;19927;-87
2022/07/03 12:28:01;;;;;;;;;;;;;;;;;;4869535;29;19938;-87
2022/07/03 12:30:27;;;;;;;;;;;;;;;;;;4892456;29;20589;-88
2022/07/03 12:32:53;;;;;;;;;;;;;;;;;;4884034;29;19935;-86
2022/07/03 12:35:19;;;;;;;;;;;;;;;;;;4888100;29;19985;-87
2022/07/03 12:37:45;;;;;;;;;;;;;;;;;;4878175;29;20010;-87
2022/07/03 12:40:11;;;;;;;;;;;;;;;;;;4883323;29;19955;-86
2022/07/03 12:42:37;;;;;;;;;;;;;;;;;;4885998;29;21255;-90
2022/07/03 12:45:03;;;;;;;;;;;;;;;;;;4870481;29;19927;-88
2022/07/03 12:47:29;;;;;;;;;;;;;;;;;;4870452;29;19930;-88
2022/07/03 12:49:55;;;;;;;;;;;;;;;;;;4876694;29;20408;-89
2022/07/03 12:52:21;;;;;;;;;;;;;;;;;;4896836;29;19942;-89
2022/07/03 12:54:47;;;;;;;;;;;;;;;;;;4877092;29;19935;-89
2022/07/03 12:59:58;;;;;;;;;;;;;;;;;;4872905;29;19972;-89
2022/07/03 13:02:24;;;;;;;;;;;;;;;;;;4868330;29;20017;-89
2022/07/03 13:04:51;;;;;;;;;;;;;;;;;;4863817;29;19931;-89
2022/07/03 13:07:19;;;;;;;;;;;;;;;;;;4868760;29;19937;-89
2022/07/03 13:09:48;;;;;;;;;;;;;;;;;;4879648;29;19983;-89
2022/07/03 13:12:19;;;;;;;;;;;;;;;;;;4884309;29;19951;-88
2022/07/03 13:14:46;;;;;;;;;;;;;;;;;;4903185;29;19927;-90
2022/07/03 13:17:12;;;;;;;;;;;;;;;;;;4881078;29;19942;-89
2022/07/03 13:19:39;;;;;;;;;;;;;;;;;;4894117;29;19931;-89
2022/07/03 13:22:06;;;;;;;;;;;;;;;;;;4869063;29;19981;-89
2022/07/03 13:24:33;;;;;;;;;;;;;;;;;;4866334;29;19974;-90
2022/07/03 13:27:05;;;;;;;;;;;;;;;;;;4867136;29;19937;-91
2022/07/03 13:29:32;;;;;;;;;;;;;;;;;;4887319;29;20375;-89
2022/07/03 13:31:58;;;;;;;;;;;;;;;;;;4867774;29;19931;-88
2022/07/03 13:34:24;;;;;;;;;;;;;;;;;;4886770;29;20302;-88
2022/07/03 13:36:50;;;;;;;;;;;;;;;;;;4868253;29;19931;-87
2022/07/03 13:39:16;;;;;;;;;;;;;;;;;;4865831;29;20671;-88
2022/07/03 13:41:42;;;;;;;;;;;;;;;;;;4883897;29;19938;-88
2022/07/03 13:44:08;;;;;;;;;;;;;;;;;;4865223;29;19979;-87
2022/07/03 13:46:34;;;;;;;;;;;;;;;;;;4868078;29;19938;-85
2022/07/03 13:49:00;;;;;;;;;;;;;;;;;;4870511;29;21110;-86
2022/07/03 13:51:26;;;;;;;;;;;;;;;;;;4858166;29;20000;-92
2022/07/03 13:53:52;;;;;;;;;;;;;;;;;;4854413;29;19942;-90
2022/07/03 13:56:17;;;;;;;;;;;;;;;;;;4875665;29;20680;-91
2022/07/03 13:58:43;;;;;;;;;;;;;;;;;;4868027;29;20594;-89
2022/07/03 14:01:09;;;;;;;;;;;;;;;;;;4874197;29;19962;-90
2022/07/03 14:03:35;;;;;;;;;;;;;;;;;;4860043;29;19923;-92
2022/07/03 14:06:03;;;;;;;;;;;;;;;;;;4851031;29;20628;-91
2022/07/03 14:08:41;;;;;;;;;;;;;;;;;;4886177;29;19978;-89
2022/07/03 14:11:07;;;;;;;;;;;;;;;;;;4855212;29;20073;-87
2022/07/03 14:13:33;;;;;;;;;;;;;;;;;;4868443;29;19938;-88
2022/07/03 14:15:59;;;;;;;;;;;;;;;;;;4850868;29;22753;-88
2022/07/03 14:18:25;;;;;;;;;;;;;;;;;;4854834;29;19931;-87
2022/07/03 14:20:51;;;;;;;;;;;;;;;;;;4861884;29;20797;-88
2022/07/03 14:23:17;;;;;;;;;;;;;;;;;;4850248;29;19935;-88
2022/07/03 14:25:43;;;;;;;;;;;;;;;;;;4848651;29;20299;-89
2022/07/03 14:33:42;;;;;;;;;;;;;;;;;;4868088;29;19936;-88
2022/07/03 14:36:08;;;;;;;;;;;;;;;;;;4854429;29;19978;-88
2022/07/03 14:38:34;;;;;;;;;;;;;;;;;;4853916;29;20464;-88
2022/07/03 14:40:59;;;;;;;;;;;;;;;;;;4861807;29;19931;-88
2022/07/03 14:43:26;;;;;;;;;;;;;;;;;;4871978;29;20018;-87
2022/07/03 14:45:52;;;;;;;;;;;;;;;;;;4852608;29;19939;-88
2022/07/03 14:48:18;;;;;;;;;;;;;;;;;;4865492;29;19931;-87
2022/07/03 14:50:44;;;;;;;;;;;;;;;;;;4848839;29;19931;-87
2022/07/03 14:53:10;;;;;;;;;;;;;;;;;;4867964;29;19970;-87
2022/07/03 14:55:35;;;;;;;;;;;;;;;;;;4867450;29;19934;-87
2022/07/03 14:58:01;;;;;;;;;;;;;;;;;;4849857;29;20274;-87
2022/07/03 15:00:28;;;;;;;;;;;;;;;;;;4849939;29;19931;-88
2022/07/03 15:02:54;;;;;;;;;;;;;;;;;;4847762;29;20333;-89
2022/07/03 15:05:19;;;;;;;;;;;;;;;;;;4854943;29;19931;-89
2022/07/03 15:07:45;;;;;;;;;;;;;;;;;;4844063;29;20846;-89
2022/07/03 15:10:11;;;;;;;;;;;;;;;;;;4869314;29;20010;-89
2022/07/03 15:12:37;;;;;;;;;;;;;;;;;;4867186;29;19942;-89
2022/07/03 15:15:03;;;;;;;;;;;;;;;;;;4862815;29;19927;-89
2022/07/03 15:17:29;;;;;;;;;;;;;;;;;;4851430;29;19938;-87
2022/07/03 15:19:55;;;;;;;;;;;;;;;;;;4851927;29;19935;-88
2022/07/03 15:22:21;;;;;;;;;;;;;;;;;;4874097;29;19937;-88
2022/07/03 15:24:47;;;;;;;;;;;;;;;;;;4872093;29;20050;-89
2022/07/03 15:27:13;;;;;;;;;;;;;;;;;;4901161;29;19927;-89
2022/07/03 15:29:45;;;;;;;;;;;;;;;;;;4886810;29;19937;-89
2022/07/03 15:32:11;;;;;;;;;;;;;;;;;;4891873;28;19923;-88
2022/07/03 15:34:38;;;;;;;;;;;;;;;;;;4887045;29;19923;-90
2022/07/03 15:37:04;;;;;;;;;;;;;;;;;;4881751;29;19931;-90
2022/07/03 15:39:30;;;;;;;;;;;;;;;;;;4883687;29;19927;-90
2022/07/03 15:42:05;;;;;;;;;;;;;;;;;;4863575;29;20383;-90
2022/07/03 15:50:20;;;;;;;;;;;;;;;;;;4918808;23;19993;-81
2022/07/03 15:52:46;;;;;;;;;;;;;;;;;;4881042;29;20391;-81
2022/07/03 15:55:12;;;;;;;;;;;;;;;;;;4892712;29;19923;-81
2022/07/03 15:57:39;;;;;;;;;;;;;;;;;;4874225;29;20394;-81
2022/07/03 16:00:05;;;;;;;;;;;;;;;;;;4874145;29;20005;-81
2022/07/03 16:02:31;;;;;;;;;;;;;;;;;;4882469;29;19945;-81
2022/07/03 16:04:57;;;;;;;;;;;;;;;;;;4870439;29;20049;-81
2022/07/03 16:07:23;;;;;;;;;;;;;;;;;;4883557;29;20419;-81
2022/07/03 16:09:49;;;;;;;;;;;;;;;;;;4881962;29;19934;-81
2022/07/03 16:12:21;;;;;;;;;;;;;;;;;;4874285;29;19930;-81
2022/07/03 16:14:47;;;;;;;;;;;;;;;;;;4869021;29;19926;-80
2022/07/03 16:17:13;;;;;;;;;;;;;;;;;;4864932;29;19982;-80
2022/07/03 16:19:42;;;;;;;;;;;;;;;;;;4870326;29;19942;-81
2022/07/03 16:22:15;;;;;;;;;;;;;;;;;;4863902;29;19931;-82
2022/07/03 16:24:46;;;;;;;;;;;;;;;;;;4872817;29;19927;-82
2022/07/03 16:27:24;;;;;;;;;;;;;;;;;;4866818;29;20347;-80
2022/07/03 16:29:50;;;;;;;;;;;;;;;;;;4868666;29;20038;-81
2022/07/03 16:32:16;;;;;;;;;;;;;;;;;;4848782;29;19931;-84
2022/07/03 16:34:42;;;;;;;;;;;;;;;;;;4843565;29;19931;-81
2022/07/03 16:37:17;;;;;;;;;;;;;;;;;;4851272;29;19931;-81
2022/07/03 16:39:43;;;;;;;;;;;;;;;;;;4878707;28;19946;-81
2022/07/03 16:42:09;;;;;;;;;;;;;;;;;;4848128;29;20021;-82
2022/07/03 16:44:35;;;;;;;;;;;;;;;;;;4844947;29;20452;-80
2022/07/03 16:47:01;;;;;;;;;;;;;;;;;;4847383;29;20350;-80
2022/07/03 16:49:27;;;;;;;;;;;;;;;;;;4880433;29;19942;-81
2022/07/03 16:51:53;;;;;;;;;;;;;;;;;;4852513;29;20399;-80
2022/07/03 16:54:18;;;;;;;;;;;;;;;;;;4856489;29;20618;-80
2022/07/03 16:56:44;;;;;;;;;;;;;;;;;;4862752;29;19927;-80
2022/07/03 16:59:10;;;;;;;;;;;;;;;;;;4885909;29;20308;-80
2022/07/03 17:01:36;;;;;;;;;;;;;;;;;;4855755;29;19995;-80
2022/07/03 17:04:02;;;;;;;;;;;;;;;;;;4877009;29;19931;-80
2022/07/03 17:06:28;;;;;;;;;;;;;;;;;;4869436;29;20069;-80
2022/07/03 17:08:55;;;;;;;;;;;;;;;;;;4870398;29;19930;-82
2022/07/03 17:11:21;;;;;;;;;;;;;;;;;;4865040;29;19966;-81
2022/07/03 17:13:47;;;;;;;;;;;;;;;;;;4842242;29;19942;-81
2022/07/03 17:16:13;;;;;;;;;;;;;;;;;;4878146;29;20010;-81
2022/07/03 17:18:42;;;;;;;;;;;;;;;;;;4853629;29;19974;-81
2022/07/03 17:21:08;;;;;;;;;;;;;;;;;;4882887;29;19951;-81
2022/07/03 17:23:34;;;;;;;;;;;;;;;;;;4868436;29;19923;-81
2022/07/03 17:25:59;;;;;;;;;;;;;;;;;;4863745;29;21407;-81
2022/07/03 17:28:26;;;;;;;;;;;;;;;;;;4856101;29;20006;-81
2022/07/03 17:30:52;;;;;;;;;;;;;;;;;;4858121;29;19931;-81
2022/07/03 17:33:18;;;;;;;;;;;;;;;;;;4846745;29;19928;-81
2022/07/03 17:39:00;;;;;;;;;;;;;;;;;;5571140;23;19954;-86
2022/07/03 17:41:27;;;;;;;;;;;;;;;;;;4865357;29;19936;-86
2022/07/03 17:43:53;;;;;;;;;;;;;;;;;;4842098;29;20026;-87
2022/07/03 17:46:19;;;;;;;;;;;;;;;;;;4866269;29;19927;-87
2022/07/03 17:48:45;;;;;;;;;;;;;;;;;;4848298;29;19927;-87
2022/07/03 17:51:11;;;;;;;;;;;;;;;;;;4835274;29;19924;-87
2022/07/03 17:53:37;;;;;;;;;;;;;;;;;;4848801;29;19931;-87
2022/07/03 17:56:03;;;;;;;;;;;;;;;;;;4845921;29;19931;-87
2022/07/03 17:58:29;;;;;;;;;;;;;;;;;;4853064;29;20014;-87
2022/07/03 18:00:55;;;;;;;;;;;;;;;;;;4852338;29;19962;-87
2022/07/03 18:03:21;;;;;;;;;;;;;;;;;;4842900;29;19927;-87
2022/07/03 18:05:48;;;;;;;;;;;;;;;;;;4837028;29;19934;-87
2022/07/03 18:08:14;;;;;;;;;;;;;;;;;;4865004;29;20801;-87
2022/07/03 18:10:41;;;;;;;;;;;;;;;;;;4849923;29;20486;-87
2022/07/03 18:13:08;;;;;;;;;;;;;;;;;;4852887;29;19924;-87
2022/07/03 18:15:34;;;;;;;;;;;;;;;;;;4840180;29;19931;-87
2022/07/03 18:18:15;;;;;;;;;;;;;;;;;;4856280;29;19927;-86
2022/07/03 18:20:41;;;;;;;;;;;;;;;;;;4850581;29;19980;-86
2022/07/03 18:23:07;;;;;;;;;;;;;;;;;;4846731;29;19987;-87
2022/07/03 18:25:33;;;;;;;;;;;;;;;;;;4849444;29;19923;-86
2022/07/03 18:27:59;;;;;;;;;;;;;;;;;;4822963;29;20546;-86
2022/07/03 18:30:25;;;;;;;;;;;;;;;;;;4847970;29;22485;-87
2022/07/03 18:32:51;;;;;;;;;;;;;;;;;;4843564;29;20055;-87
2022/07/03 18:35:17;;;;;;;;;;;;;;;;;;4848338;29;19936;-87